sensor_id;sensor_type;location;lat;lon;timestamp;pressure;altitude;pressure_sealevel;temperature;humidity
19890;BME280;10107;51.198;6.824;2022-11-15T00:02:46;-21571.66;;;9.61;100.00
19890;BME280;10107;51.198;6.824;2022-11-15T00:07:06;-21572.72;;;9.65;100.00
19890;BME280;10107;51.198;6.824;2022-11-15T00:11:26;-21574.03;;;9.70;100.00
19890;BME280;10107;51.198;6.824;2022-11-15T00:15:48;-21575.63;;;9.77;100.00
19890;BME280;10107;51.198;6.824;2022-11-15T00:20:09;-21576.94;;;9.82;100.00
19890;BME280;10107;51.198;6.824;2022-11-15T00:24:30;-21578.81;;;9.89;100.00
19890;BME280;10107;51.198;6.824;2022-11-15T00:28:51;-21580.66;;;9.96;100.00
19890;BME280;10107;51.198;6.824;2022-11-15T00:33:13;-21581.84;;;10.01;100.00
19890;BME280;10107;51.198;6.824;2022-11-15T00:37:33;-21583.84;;;10.08;100.00
19890;BME280;10107;51.198;6.824;2022-11-15T00:41:53;-21585.84;;;10.16;100.00
19890;BME280;10107;51.198;6.824;2022-11-15T00:46:13;-21586.88;;;10.20;100.00
19890;BME280;10107;51.198;6.824;2022-11-15T00:50:35;-21587.56;;;10.23;100.00
19890;BME280;10107;51.198;6.824;2022-11-15T00:54:55;-21587.56;;;10.23;100.00
19890;BME280;10107;51.198;6.824;2022-11-15T00:59:15;-21588.75;;;10.27;100.00
19890;BME280;10107;51.198;6.824;2022-11-15T01:03:36;-21589.16;;;10.29;100.00
19890;BME280;10107;51.198;6.824;2022-11-15T01:07:58;-21588.75;;;10.27;100.00
19890;BME280;10107;51.198;6.824;2022-11-15T01:12:19;-21589.69;;;10.31;100.00
19890;BME280;10107;51.198;6.824;2022-11-15T01:16:39;-21590.75;;;10.35;100.00
19890;BME280;10107;51.198;6.824;2022-11-15T01:20:59;-21590.75;;;10.35;100.00
19890;BME280;10107;51.198;6.824;2022-11-15T01:25:21;-21590.88;;;10.36;100.00
19890;BME280;10107;51.198;6.824;2022-11-15T01:29:41;-21590.47;;;10.34;100.00
19890;BME280;10107;51.198;6.824;2022-11-15T01:34:01;-21590.22;;;10.33;100.00
19890;BME280;10107;51.198;6.824;2022-11-15T01:38:22;-21590.47;;;10.34;100.00
19890;BME280;10107;51.198;6.824;2022-11-15T01:42:44;-21590.34;;;10.34;100.00
19890;BME280;10107;51.198;6.824;2022-11-15T01:47:06;-21588.09;;;10.25;100.00
19890;BME280;10107;51.198;6.824;2022-11-15T01:51:30;-21588.63;;;10.27;100.00
19890;BME280;10107;51.198;6.824;2022-11-15T01:55:52;-21589.69;;;10.31;100.00
19890;BME280;10107;51.198;6.824;2022-11-15T02:00:15;-21592.72;;;10.43;100.00
19890;BME280;10107;51.198;6.824;2022-11-15T02:04:39;-21593.66;;;10.46;100.00
19890;BME280;10107;51.198;6.824;2022-11-15T02:09:00;-21595.38;;;10.53;100.00
19890;BME280;10107;51.198;6.824;2022-11-15T02:13:21;-21597.09;;;10.60;100.00
19890;BME280;10107;51.198;6.824;2022-11-15T02:17:57;-21597.38;;;10.61;100.00
19890;BME280;10107;51.198;6.824;2022-11-15T02:22:35;-21597.63;;;10.62;100.00
19890;BME280;10107;51.198;6.824;2022-11-15T02:27:16;-21598.69;;;10.66;100.00
19890;BME280;10107;51.198;6.824;2022-11-15T02:31:48;-21598.94;;;10.67;100.00
19890;BME280;10107;51.198;6.824;2022-11-15T02:36:15;-21599.75;;;10.70;100.00
19890;BME280;10107;51.198;6.824;2022-11-15T02:40:42;-21600.94;;;10.75;100.00
19890;BME280;10107;51.198;6.824;2022-11-15T02:45:07;-21601.59;;;10.77;100.00
19890;BME280;10107;51.198;6.824;2022-11-15T02:49:33;-21603.59;;;10.85;100.00
19890;BME280;10107;51.198;6.824;2022-11-15T02:53:53;-21605.84;;;10.94;100.00
19890;BME280;10107;51.198;6.824;2022-11-15T02:58:35;-21606.50;;;10.96;100.00
19890;BME280;10107;51.198;6.824;2022-11-15T03:03:16;-21606.91;;;10.98;100.00
19890;BME280;10107;51.198;6.824;2022-11-15T03:07:49;-21606.50;;;10.96;100.00
19890;BME280;10107;51.198;6.824;2022-11-15T03:12:15;-21606.91;;;10.98;100.00
19890;BME280;10107;51.198;6.824;2022-11-15T03:16:38;-21607.44;;;11.00;100.00
19890;BME280;10107;51.198;6.824;2022-11-15T03:21:02;-21607.81;;;11.01;100.00
19890;BME280;10107;51.198;6.824;2022-11-15T03:25:26;-21607.81;;;11.01;100.00
19890;BME280;10107;51.198;6.824;2022-11-15T03:29:51;-21607.81;;;11.01;100.00
19890;BME280;10107;51.198;6.824;2022-11-15T03:34:22;-21608.09;;;11.02;100.00
19890;BME280;10107;51.198;6.824;2022-11-15T03:38:45;-21608.34;;;11.03;100.00
19890;BME280;10107;51.198;6.824;2022-11-15T03:43:10;-21607.97;;;11.02;100.00
19890;BME280;10107;51.198;6.824;2022-11-15T03:47:38;-21609.03;;;11.06;100.00
19890;BME280;10107;51.198;6.824;2022-11-15T03:52:00;-21608.63;;;11.04;100.00
19890;BME280;10107;51.198;6.824;2022-11-15T03:56:21;-21607.97;;;11.02;100.00
19890;BME280;10107;51.198;6.824;2022-11-15T04:00:45;-21607.97;;;11.02;100.00
19890;BME280;10107;51.198;6.824;2022-11-15T04:05:06;-21609.03;;;11.06;100.00
19890;BME280;10107;51.198;6.824;2022-11-15T04:09:26;-21610.22;;;11.10;100.00
19890;BME280;10107;51.198;6.824;2022-11-15T04:13:46;-21611.25;;;11.15;100.00
19890;BME280;10107;51.198;6.824;2022-11-15T04:18:08;-21611.66;;;11.16;100.00
19890;BME280;10107;51.198;6.824;2022-11-15T04:22:28;-21612.97;;;11.21;100.00
19890;BME280;10107;51.198;6.824;2022-11-15T04:27:06;-21612.31;;;11.19;100.00
19890;BME280;10107;51.198;6.824;2022-11-15T04:31:27;-21612.06;;;11.18;100.00
19890;BME280;10107;51.198;6.824;2022-11-15T04:35:48;-21612.06;;;11.18;100.00
19890;BME280;10107;51.198;6.824;2022-11-15T04:40:24;-21611.78;;;11.17;100.00
19890;BME280;10107;51.198;6.824;2022-11-15T04:44:44;-21609.81;;;11.09;100.00
19890;BME280;10107;51.198;6.824;2022-11-15T04:49:04;-21607.56;;;11.00;100.00
19890;BME280;10107;51.198;6.824;2022-11-15T04:53:26;-21606.38;;;10.96;100.00
19890;BME280;10107;51.198;6.824;2022-11-15T04:57:46;-21604.50;;;10.88;100.00
19890;BME280;10107;51.198;6.824;2022-11-15T05:02:06;-21604.50;;;10.88;100.00
19890;BME280;10107;51.198;6.824;2022-11-15T05:06:26;-21604.50;;;10.88;100.00
19890;BME280;10107;51.198;6.824;2022-11-15T05:10:48;-21604.66;;;10.89;100.00
19890;BME280;10107;51.198;6.824;2022-11-15T05:15:09;-21605.03;;;10.90;100.00
19890;BME280;10107;51.198;6.824;2022-11-15T05:19:29;-21605.72;;;10.93;100.00
19890;BME280;10107;51.198;6.824;2022-11-15T05:23:49;-21605.19;;;10.91;100.00
19890;BME280;10107;51.198;6.824;2022-11-15T05:28:11;-21605.97;;;10.94;100.00
19890;BME280;10107;51.198;6.824;2022-11-15T05:32:31;-21606.38;;;10.96;100.00
19890;BME280;10107;51.198;6.824;2022-11-15T05:36:51;-21608.09;;;11.02;100.00
19890;BME280;10107;51.198;6.824;2022-11-15T05:41:13;-21608.63;;;11.04;100.00
19890;BME280;10107;51.198;6.824;2022-11-15T05:45:36;-21609.94;;;11.09;100.00
19890;BME280;10107;51.198;6.824;2022-11-15T05:49:56;-21611.66;;;11.16;100.00
19890;BME280;10107;51.198;6.824;2022-11-15T05:54:17;-21612.72;;;11.20;100.00
19890;BME280;10107;51.198;6.824;2022-11-15T05:58:39;-21613.25;;;11.22;100.00
19890;BME280;10107;51.198;6.824;2022-11-15T06:03:00;-21614.84;;;11.28;100.00
19890;BME280;10107;51.198;6.824;2022-11-15T06:07:21;-21615.50;;;11.31;100.00
19890;BME280;10107;51.198;6.824;2022-11-15T06:11:41;-21614.97;;;11.29;100.00
19890;BME280;10107;51.198;6.824;2022-11-15T06:16:01;-21615.75;;;11.32;100.00
19890;BME280;10107;51.198;6.824;2022-11-15T06:20:23;-21616.03;;;11.33;100.00
19890;BME280;10107;51.198;6.824;2022-11-15T06:24:43;-21616.44;;;11.35;100.00
19890;BME280;10107;51.198;6.824;2022-11-15T06:29:04;-21616.69;;;11.36;100.00
19890;BME280;10107;51.198;6.824;2022-11-15T06:33:24;-21617.34;;;11.38;100.00
19890;BME280;10107;51.198;6.824;2022-11-15T06:37:46;-21617.75;;;11.40;100.00
19890;BME280;10107;51.198;6.824;2022-11-15T06:42:07;-21617.47;;;11.39;100.00
19890;BME280;10107;51.198;6.824;2022-11-15T06:46:28;-21617.63;;;11.39;100.00
19890;BME280;10107;51.198;6.824;2022-11-15T06:50:50;-21616.81;;;11.36;100.00
19890;BME280;10107;51.198;6.824;2022-11-15T06:55:12;-21617.22;;;11.38;100.00
19890;BME280;10107;51.198;6.824;2022-11-15T06:59:32;-21618.28;;;11.42;100.00
19890;BME280;10107;51.198;6.824;2022-11-15T07:03:53;-21617.63;;;11.39;100.00
19890;BME280;10107;51.198;6.824;2022-11-15T07:08:13;-21617.63;;;11.39;100.00
19890;BME280;10107;51.198;6.824;2022-11-15T07:12:34;-21616.81;;;11.36;100.00
19890;BME280;10107;51.198;6.824;2022-11-15T07:16:55;-21616.94;;;11.37;100.00
19890;BME280;10107;51.198;6.824;2022-11-15T07:21:15;-21616.44;;;11.35;100.00
19890;BME280;10107;51.198;6.824;2022-11-15T07:25:35;-21617.34;;;11.38;100.00
19890;BME280;10107;51.198;6.824;2022-11-15T07:29:56;-21617.88;;;11.40;100.00
19890;BME280;10107;51.198;6.824;2022-11-15T07:34:16;-21618.81;;;11.44;100.00
19890;BME280;10107;51.198;6.824;2022-11-15T07:38:36;-21622.78;;;11.59;100.00
19890;BME280;10107;51.198;6.824;2022-11-15T07:43:05;-21669.25;;;13.40;92.95
19890;BME280;10107;51.198;6.824;2022-11-15T07:47:28;-21713.78;;;15.13;79.36
19890;BME280;10107;51.198;6.824;2022-11-15T07:51:48;-21697.84;;;14.51;80.46
19890;BME280;10107;51.198;6.824;2022-11-15T07:56:08;-21675.84;;;13.65;85.13
19890;BME280;10107;51.198;6.824;2022-11-15T08:00:30;-21661.75;;;13.11;88.05
19890;BME280;10107;51.198;6.824;2022-11-15T08:04:51;-21656.72;;;12.91;88.80
19890;BME280;10107;51.198;6.824;2022-11-15T08:09:11;-21655.53;;;12.86;88.98
19890;BME280;10107;51.198;6.824;2022-11-15T08:13:31;-21654.09;;;12.81;88.64
19890;BME280;10107;51.198;6.824;2022-11-15T08:17:56;-21662.28;;;13.13;86.08
19890;BME280;10107;51.198;6.824;2022-11-15T08:22:17;-21658.31;;;12.97;86.64
19890;BME280;10107;51.198;6.824;2022-11-15T08:26:37;-21651.84;;;12.72;88.42
19890;BME280;10107;51.198;6.824;2022-11-15T08:30:58;-21655.81;;;12.87;87.81
19890;BME280;10107;51.198;6.824;2022-11-15T08:35:20;-21662.78;;;13.15;85.89
19890;BME280;10107;51.198;6.824;2022-11-15T08:39:40;-21707.31;;;14.88;79.14
19890;BME280;10107;51.198;6.824;2022-11-15T08:44:00;-21771.50;;;17.39;65.57
19890;BME280;10107;51.198;6.824;2022-11-15T08:48:21;-21773.63;;;17.47;62.75
19890;BME280;10107;51.198;6.824;2022-11-15T08:52:42;-21804.09;;;18.67;57.57
19890;BME280;10107;51.198;6.824;2022-11-15T08:57:02;-21813.09;;;19.02;55.74
19890;BME280;10107;51.198;6.824;2022-11-15T09:01:23;-21805.53;;;18.72;54.52
19890;BME280;10107;51.198;6.824;2022-11-15T09:05:43;-21768.75;;;17.28;59.59
19890;BME280;10107;51.198;6.824;2022-11-15T09:10:05;-21756.31;;;16.79;61.69
19890;BME280;10107;51.198;6.824;2022-11-15T09:14:25;-21767.06;;;17.21;59.32
19890;BME280;10107;51.198;6.824;2022-11-15T09:18:46;-21746.34;;;16.40;61.68
19890;BME280;10107;51.198;6.824;2022-11-15T09:23:07;-21712.59;;;15.09;66.99
19890;BME280;10107;51.198;6.824;2022-11-15T09:27:29;-21702.19;;;14.68;69.96
19890;BME280;10107;51.198;6.824;2022-11-15T09:31:51;-21695.88;;;14.43;70.48
19890;BME280;10107;51.198;6.824;2022-11-15T09:36:12;-21691.00;;;14.24;71.73
19890;BME280;10107;51.198;6.824;2022-11-15T09:40:35;-21692.06;;;14.29;71.77
19890;BME280;10107;51.198;6.824;2022-11-15T09:45:08;-21687.59;;;14.11;71.52
19890;BME280;10107;51.198;6.824;2022-11-15T09:49:31;-21680.47;;;13.83;67.84
19890;BME280;10107;51.198;6.824;2022-11-15T09:53:56;-21674.94;;;13.62;68.05
19890;BME280;10107;51.198;6.824;2022-11-15T09:58:05;-21683.50;;;13.95;68.87
19890;BME280;10107;51.198;6.824;2022-11-15T10:02:23;-21695.34;;;14.41;68.69
19890;BME280;10107;51.198;6.824;2022-11-15T10:06:32;-21713.63;;;15.13;65.59
19890;BME280;10107;51.198;6.824;2022-11-15T10:10:40;-21732.28;;;15.86;61.89
19890;BME280;10107;51.198;6.824;2022-11-15T10:14:43;-21749.63;;;16.53;58.24
19890;BME280;10107;51.198;6.824;2022-11-15T10:18:52;-21752.78;;;16.66;56.90
19890;BME280;10107;51.198;6.824;2022-11-15T10:23:00;-21758.69;;;16.89;55.69
19890;BME280;10107;51.198;6.824;2022-11-15T10:27:08;-21761.28;;;16.99;55.02
19890;BME280;10107;51.198;6.824;2022-11-15T10:31:22;-21785.41;;;17.93;51.20
19890;BME280;10107;51.198;6.824;2022-11-15T10:35:27;-21800.69;;;18.53;49.08
19890;BME280;10107;51.198;6.824;2022-11-15T10:39:29;-21806.44;;;18.76;48.20
19890;BME280;10107;51.198;6.824;2022-11-15T10:43:31;-21789.97;;;18.11;49.97
19890;BME280;10107;51.198;6.824;2022-11-15T10:47:33;-21779.63;;;17.71;50.19
19890;BME280;10107;51.198;6.824;2022-11-15T10:51:41;-21795.72;;;18.34;49.10
19890;BME280;10107;51.198;6.824;2022-11-15T10:55:47;-21800.31;;;18.52;48.18
19890;BME280;10107;51.198;6.824;2022-11-15T10:59:52;-21804.34;;;18.68;46.94
19890;BME280;10107;51.198;6.824;2022-11-15T11:03:59;-21819.91;;;19.29;45.27
19890;BME280;10107;51.198;6.824;2022-11-15T11:08:05;-21821.34;;;19.34;44.79
19890;BME280;10107;51.198;6.824;2022-11-15T11:12:10;-21813.09;;;19.02;44.81
19890;BME280;10107;51.198;6.824;2022-11-15T11:20:38;-21810.50;;;18.92;44.09
19890;BME280;10107;51.198;6.824;2022-11-15T11:24:46;-21801.22;;;18.55;44.06
19890;BME280;10107;51.198;6.824;2022-11-15T11:28:58;-21795.06;;;18.31;44.36
19890;BME280;10107;51.198;6.824;2022-11-15T11:33:11;-21782.25;;;17.81;44.28
19890;BME280;10107;51.198;6.824;2022-11-15T11:37:21;-21753.28;;;16.68;46.17
19890;BME280;10107;51.198;6.824;2022-11-15T11:41:44;-21726.91;;;15.64;48.47
19890;BME280;10107;51.198;6.824;2022-11-15T11:46:15;-21714.56;;;15.16;49.59
19890;BME280;10107;51.198;6.824;2022-11-15T11:50:24;-21705.63;;;14.81;51.07
19890;BME280;10107;51.198;6.824;2022-11-15T11:54:33;-21700.22;;;14.60;51.52
19890;BME280;10107;51.198;6.824;2022-11-15T11:58:42;-21700.88;;;14.63;51.20
19890;BME280;10107;51.198;6.824;2022-11-15T12:02:47;-21697.59;;;14.50;52.05
19890;BME280;10107;51.198;6.824;2022-11-15T12:06:54;-21699.16;;;14.56;51.85
19890;BME280;10107;51.198;6.824;2022-11-15T12:11:03;-21700.09;;;14.60;52.48
19890;BME280;10107;51.198;6.824;2022-11-15T12:15:13;-21700.63;;;14.62;51.86
19890;BME280;10107;51.198;6.824;2022-11-15T12:19:17;-21704.03;;;14.75;52.49
19890;BME280;10107;51.198;6.824;2022-11-15T12:23:22;-21705.88;;;14.82;53.04
19890;BME280;10107;51.198;6.824;2022-11-15T12:27:31;-21700.47;;;14.61;54.08
19890;BME280;10107;51.198;6.824;2022-11-15T12:31:39;-21699.97;;;14.59;55.22
19890;BME280;10107;51.198;6.824;2022-11-15T12:35:57;-21697.72;;;14.51;55.80
19890;BME280;10107;51.198;6.824;2022-11-15T12:40:15;-21699.31;;;14.57;55.88
19890;BME280;10107;51.198;6.824;2022-11-15T12:48:56;-21699.81;;;14.59;56.22
19890;BME280;10107;51.198;6.824;2022-11-15T12:53:26;-21698.25;;;14.53;56.22
19890;BME280;10107;51.198;6.824;2022-11-15T12:57:39;-21700.09;;;14.60;57.06
19890;BME280;10107;51.198;6.824;2022-11-15T13:02:00;-21699.97;;;14.59;56.25
19890;BME280;10107;51.198;6.824;2022-11-15T13:06:09;-21696.66;;;14.46;56.85
19890;BME280;10107;51.198;6.824;2022-11-15T13:10:32;-21697.72;;;14.51;57.42
19890;BME280;10107;51.198;6.824;2022-11-15T13:14:46;-21699.16;;;14.56;57.78
19890;BME280;10107;51.198;6.824;2022-11-15T13:18:53;-21697.84;;;14.51;57.75
19890;BME280;10107;51.198;6.824;2022-11-15T13:23:07;-21696.78;;;14.47;58.26
19890;BME280;10107;51.198;6.824;2022-11-15T13:27:14;-21691.13;;;14.25;58.57
19890;BME280;10107;51.198;6.824;2022-11-15T13:31:28;-21692.59;;;14.31;59.29
19890;BME280;10107;51.198;6.824;2022-11-15T13:35:31;-21697.19;;;14.49;59.02
19890;BME280;10107;51.198;6.824;2022-11-15T13:39:36;-21699.97;;;14.59;58.39
19890;BME280;10107;51.198;6.824;2022-11-15T13:43:38;-21699.03;;;14.56;58.73
19890;BME280;10107;51.198;6.824;2022-11-15T13:47:40;-21698.91;;;14.55;59.12
19890;BME280;10107;51.198;6.824;2022-11-15T13:51:44;-21700.75;;;14.62;59.04
19890;BME280;10107;51.198;6.824;2022-11-15T13:55:49;-21699.69;;;14.58;59.75
19890;BME280;10107;51.198;6.824;2022-11-15T13:59:55;-21699.03;;;14.56;59.80
19890;BME280;10107;51.198;6.824;2022-11-15T14:03:59;-21699.97;;;14.59;60.34
19890;BME280;10107;51.198;6.824;2022-11-15T14:08:13;-21698.63;;;14.54;61.42
19890;BME280;10107;51.198;6.824;2022-11-15T14:12:27;-21695.75;;;14.43;62.18
19890;BME280;10107;51.198;6.824;2022-11-15T14:16:34;-21696.41;;;14.45;62.59
19890;BME280;10107;51.198;6.824;2022-11-15T14:20:38;-21696.28;;;14.45;63.23
19890;BME280;10107;51.198;6.824;2022-11-15T14:24:41;-21693.78;;;14.35;63.92
19890;BME280;10107;51.198;6.824;2022-11-15T14:28:45;-21688.75;;;14.16;65.07
19890;BME280;10107;51.198;6.824;2022-11-15T14:32:48;-21685.88;;;14.04;65.90
19890;BME280;10107;51.198;6.824;2022-11-15T14:36:50;-21683.38;;;13.95;67.07
19890;BME280;10107;51.198;6.824;2022-11-15T14:40:52;-21680.59;;;13.84;68.02
19890;BME280;10107;51.198;6.824;2022-11-15T14:44:57;-21677.84;;;13.73;68.39
19890;BME280;10107;51.198;6.824;2022-11-15T14:48:59;-21675.59;;;13.64;68.95
19890;BME280;10107;51.198;6.824;2022-11-15T14:53:01;-21673.88;;;13.58;69.71
19890;BME280;10107;51.198;6.824;2022-11-15T14:57:03;-21672.44;;;13.52;69.97
19890;BME280;10107;51.198;6.824;2022-11-15T15:01:12;-21671.38;;;13.48;70.04
19890;BME280;10107;51.198;6.824;2022-11-15T15:05:17;-21670.59;;;13.45;70.63
19890;BME280;10107;51.198;6.824;2022-11-15T15:09:19;-21669.78;;;13.42;70.43
19890;BME280;10107;51.198;6.824;2022-11-15T15:13:23;-21669.25;;;13.40;71.06
19890;BME280;10107;51.198;6.824;2022-11-15T15:17:26;-21667.69;;;13.34;71.28
19890;BME280;10107;51.198;6.824;2022-11-15T15:21:28;-21666.22;;;13.28;71.77
19890;BME280;10107;51.198;6.824;2022-11-15T15:25:32;-21664.50;;;13.21;72.57
19890;BME280;10107;51.198;6.824;2022-11-15T15:29:35;-21662.28;;;13.13;73.13
19890;BME280;10107;51.198;6.824;2022-11-15T15:33:38;-21660.03;;;13.04;73.78
19890;BME280;10107;51.198;6.824;2022-11-15T15:37:40;-21658.56;;;12.98;74.49
19890;BME280;10107;51.198;6.824;2022-11-15T15:41:42;-21656.34;;;12.90;74.79
19890;BME280;10107;51.198;6.824;2022-11-15T15:45:44;-21655.41;;;12.86;75.36
19890;BME280;10107;51.198;6.824;2022-11-15T15:49:48;-21656.72;;;12.91;75.03
19890;BME280;10107;51.198;6.824;2022-11-15T15:53:49;-21656.47;;;12.90;75.34
19890;BME280;10107;51.198;6.824;2022-11-15T15:57:53;-21656.06;;;12.88;75.31
19890;BME280;10107;51.198;6.824;2022-11-15T16:01:54;-21656.06;;;12.88;75.93
19890;BME280;10107;51.198;6.824;2022-11-15T16:05:57;-21655.81;;;12.87;76.11
19890;BME280;10107;51.198;6.824;2022-11-15T16:09:59;-21655.94;;;12.88;76.31
19890;BME280;10107;51.198;6.824;2022-11-15T16:14:01;-21655.28;;;12.85;76.40
19890;BME280;10107;51.198;6.824;2022-11-15T16:18:04;-21654.75;;;12.83;76.54
19890;BME280;10107;51.198;6.824;2022-11-15T16:22:09;-21654.75;;;12.83;76.72
19890;BME280;10107;51.198;6.824;2022-11-15T16:26:23;-21654.22;;;12.81;76.71
19890;BME280;10107;51.198;6.824;2022-11-15T16:30:25;-21653.56;;;12.79;77.06
19890;BME280;10107;51.198;6.824;2022-11-15T16:34:26;-21652.38;;;12.74;77.48
19890;BME280;10107;51.198;6.824;2022-11-15T16:38:30;-21652.25;;;12.74;77.82
19890;BME280;10107;51.198;6.824;2022-11-15T16:42:32;-21652.63;;;12.75;77.63
19890;BME280;10107;51.198;6.824;2022-11-15T16:46:34;-21652.09;;;12.73;78.21
19890;BME280;10107;51.198;6.824;2022-11-15T16:50:35;-21652.38;;;12.74;78.18
19890;BME280;10107;51.198;6.824;2022-11-15T16:54:44;-21651.84;;;12.72;78.30
19890;BME280;10107;51.198;6.824;2022-11-15T16:58:46;-21651.84;;;12.72;78.76
19890;BME280;10107;51.198;6.824;2022-11-15T17:02:48;-21652.09;;;12.73;78.88
19890;BME280;10107;51.198;6.824;2022-11-15T17:06:50;-21651.84;;;12.72;79.06
19890;BME280;10107;51.198;6.824;2022-11-15T17:10:53;-21651.31;;;12.70;79.47
19890;BME280;10107;51.198;6.824;2022-11-15T17:14:55;-21652.09;;;12.73;79.55
19890;BME280;10107;51.198;6.824;2022-11-15T17:18:57;-21651.31;;;12.70;79.84
19890;BME280;10107;51.198;6.824;2022-11-15T17:22:58;-21651.44;;;12.71;79.88
19890;BME280;10107;51.198;6.824;2022-11-15T17:27:01;-21651.19;;;12.70;80.02
19890;BME280;10107;51.198;6.824;2022-11-15T17:31:06;-21652.38;;;12.74;79.97
19890;BME280;10107;51.198;6.824;2022-11-15T17:35:09;-21652.63;;;12.75;79.99
19890;BME280;10107;51.198;6.824;2022-11-15T17:39:12;-21653.69;;;12.79;80.05
19890;BME280;10107;51.198;6.824;2022-11-15T17:43:15;-21653.97;;;12.80;80.04
19890;BME280;10107;51.198;6.824;2022-11-15T17:47:17;-21654.34;;;12.82;80.02
19890;BME280;10107;51.198;6.824;2022-11-15T17:51:18;-21655.28;;;12.85;79.90
19890;BME280;10107;51.198;6.824;2022-11-15T17:55:21;-21655.28;;;12.85;80.53
19890;BME280;10107;51.198;6.824;2022-11-15T17:59:24;-21654.75;;;12.83;81.26
19890;BME280;10107;51.198;6.824;2022-11-15T18:03:26;-21653.28;;;12.78;82.03
19890;BME280;10107;51.198;6.824;2022-11-15T18:07:27;-21652.78;;;12.76;82.68
19890;BME280;10107;51.198;6.824;2022-11-15T18:11:30;-21651.19;;;12.70;83.05
19890;BME280;10107;51.198;6.824;2022-11-15T18:15:34;-21649.47;;;12.63;84.24
19890;BME280;10107;51.198;6.824;2022-11-15T18:19:35;-21647.50;;;12.55;86.51
19890;BME280;10107;51.198;6.824;2022-11-15T18:23:37;-21645.78;;;12.48;88.41
19890;BME280;10107;51.198;6.824;2022-11-15T18:27:39;-21643.41;;;12.39;90.08
19890;BME280;10107;51.198;6.824;2022-11-15T18:31:42;-21639.81;;;12.25;93.04
19890;BME280;10107;51.198;6.824;2022-11-15T18:35:44;-21636.41;;;12.12;95.21
19890;BME280;10107;51.198;6.824;2022-11-15T18:39:46;-21632.81;;;11.98;98.14
19890;BME280;10107;51.198;6.824;2022-11-15T18:43:48;-21630.19;;;11.88;99.70
19890;BME280;10107;51.198;6.824;2022-11-15T18:47:51;-21627.28;;;11.77;100.00
19890;BME280;10107;51.198;6.824;2022-11-15T18:51:53;-21624.50;;;11.66;100.00
19890;BME280;10107;51.198;6.824;2022-11-15T18:55:59;-21622.78;;;11.59;100.00
19890;BME280;10107;51.198;6.824;2022-11-15T19:00:02;-21621.44;;;11.54;100.00
19890;BME280;10107;51.198;6.824;2022-11-15T19:04:07;-21619.88;;;11.48;100.00
19890;BME280;10107;51.198;6.824;2022-11-15T19:08:09;-21619.34;;;11.46;100.00
19890;BME280;10107;51.198;6.824;2022-11-15T19:12:11;-21618.16;;;11.41;100.00
19890;BME280;10107;51.198;6.824;2022-11-15T19:16:14;-21617.22;;;11.38;100.00
19890;BME280;10107;51.198;6.824;2022-11-15T19:20:17;-21615.63;;;11.32;100.00
19890;BME280;10107;51.198;6.824;2022-11-15T19:24:19;-21614.56;;;11.27;100.00
19890;BME280;10107;51.198;6.824;2022-11-15T19:28:21;-21614.03;;;11.25;100.00
19890;BME280;10107;51.198;6.824;2022-11-15T19:32:23;-21613.38;;;11.23;100.00
19890;BME280;10107;51.198;6.824;2022-11-15T19:36:27;-21613.13;;;11.22;100.00
19890;BME280;10107;51.198;6.824;2022-11-15T19:40:32;-21612.59;;;11.20;100.00
19890;BME280;10107;51.198;6.824;2022-11-15T19:44:33;-21612.06;;;11.18;100.00
19890;BME280;10107;51.198;6.824;2022-11-15T19:48:35;-21611.53;;;11.16;100.00
19890;BME280;10107;51.198;6.824;2022-11-15T19:52:39;-21611.53;;;11.16;100.00
19890;BME280;10107;51.198;6.824;2022-11-15T19:56:40;-21611.78;;;11.17;100.00
19890;BME280;10107;51.198;6.824;2022-11-15T20:00:42;-21611.41;;;11.15;100.00
19890;BME280;10107;51.198;6.824;2022-11-15T20:04:44;-21611.41;;;11.15;100.00
19890;BME280;10107;51.198;6.824;2022-11-15T20:08:47;-21611.13;;;11.14;100.00
19890;BME280;10107;51.198;6.824;2022-11-15T20:12:49;-21610.34;;;11.11;100.00
19890;BME280;10107;51.198;6.824;2022-11-15T20:16:51;-21610.22;;;11.10;100.00
19890;BME280;10107;51.198;6.824;2022-11-15T20:20:53;-21609.94;;;11.09;100.00
19890;BME280;10107;51.198;6.824;2022-11-15T20:24:57;-21609.69;;;11.08;100.00
19890;BME280;10107;51.198;6.824;2022-11-15T20:28:58;-21608.88;;;11.05;100.00
19890;BME280;10107;51.198;6.824;2022-11-15T20:33:02;-21609.16;;;11.06;100.00
19890;BME280;10107;51.198;6.824;2022-11-15T20:37:04;-21609.28;;;11.07;100.00
19890;BME280;10107;51.198;6.824;2022-11-15T20:41:07;-21609.03;;;11.06;100.00
19890;BME280;10107;51.198;6.824;2022-11-15T20:45:09;-21608.75;;;11.05;100.00
19890;BME280;10107;51.198;6.824;2022-11-15T20:49:11;-21609.03;;;11.06;100.00
19890;BME280;10107;51.198;6.824;2022-11-15T20:53:14;-21609.03;;;11.06;100.00
19890;BME280;10107;51.198;6.824;2022-11-15T20:57:17;-21608.88;;;11.05;100.00
19890;BME280;10107;51.198;6.824;2022-11-15T21:01:20;-21609.28;;;11.07;100.00
19890;BME280;10107;51.198;6.824;2022-11-15T21:05:22;-21609.28;;;11.07;100.00
19890;BME280;10107;51.198;6.824;2022-11-15T21:09:24;-21609.53;;;11.08;100.00
19890;BME280;10107;51.198;6.824;2022-11-15T21:13:45;-21609.03;;;11.06;100.00
19890;BME280;10107;51.198;6.824;2022-11-15T21:17:48;-21608.34;;;11.03;100.00
19890;BME280;10107;51.198;6.824;2022-11-15T21:21:49;-21609.03;;;11.06;100.00
19890;BME280;10107;51.198;6.824;2022-11-15T21:25:51;-21609.03;;;11.06;100.00
19890;BME280;10107;51.198;6.824;2022-11-15T21:29:54;-21608.75;;;11.05;100.00
19890;BME280;10107;51.198;6.824;2022-11-15T21:33:56;-21608.34;;;11.03;100.00
19890;BME280;10107;51.198;6.824;2022-11-15T21:37:58;-21608.09;;;11.02;100.00
19890;BME280;10107;51.198;6.824;2022-11-15T21:42:00;-21607.28;;;10.99;100.00
19890;BME280;10107;51.198;6.824;2022-11-15T21:46:04;-21606.91;;;10.98;100.00
19890;BME280;10107;51.198;6.824;2022-11-15T21:50:07;-21607.03;;;10.98;100.00
19890;BME280;10107;51.198;6.824;2022-11-15T21:54:09;-21607.16;;;10.99;100.00
19890;BME280;10107;51.198;6.824;2022-11-15T21:58:11;-21606.22;;;10.95;100.00
19890;BME280;10107;51.198;6.824;2022-11-15T22:02:14;-21606.22;;;10.95;100.00